Time;durP1;ratioP1;P1;durP2;ratioP2;P2;SDS_P1;SDS_P2;PMS_P1;PMS_P2;Temp;Humidity;BMP_temperature;BMP_pressure;BME280_temperature;BME280_humidity;BME280_pressure;Samples;Min_cycle;Max_cycle;Signal;HPM_P1;HPM_P2
2021/12/03 00:01:26;;;;;;;12.30;5.35;;;;;;;3.57;66.03;101049.59;5214854;28;20923;-45
2021/12/03 00:04:00;;;;;;;13.75;6.50;;;;;;;3.57;65.81;101040.91;5215375;28;20420;-42
2021/12/03 00:06:35;;;;;;;13.20;7.72;;;;;;;3.56;65.96;101045.31;5217214;28;20422;-39
2021/12/03 00:09:09;;;;;;;13.05;6.43;;;;;;;3.52;66.09;101043.81;5221447;28;20423;-40
2021/12/03 00:11:41;;;;;;;16.17;7.80;;;;;;;3.50;66.08;101050.94;5218963;28;20515;-39
2021/12/03 00:14:13;;;;;;;14.98;6.82;;;;;;;3.49;66.21;101038.78;5219864;28;20560;-45
2021/12/03 00:16:46;;;;;;;10.48;6.43;;;;;;;3.47;66.19;101040.69;5214776;28;20778;-42
2021/12/03 00:19:19;;;;;;;11.52;6.35;;;;;;;3.46;66.22;101038.97;5215700;28;20396;-41
2021/12/03 00:21:52;;;;;;;9.75;6.10;;;;;;;3.46;66.29;101049.44;5213833;28;20510;-41
2021/12/03 00:24:24;;;;;;;8.05;5.82;;;;;;;3.43;66.24;101052.22;5214940;28;20401;-46
2021/12/03 00:26:56;;;;;;;8.65;5.63;;;;;;;3.42;66.24;101051.41;5213013;28;20510;-40
2021/12/03 00:29:29;;;;;;;16.92;6.28;;;;;;;3.37;66.20;101034.34;5220432;28;20472;-38
2021/12/03 00:32:01;;;;;;;10.70;6.10;;;;;;;3.42;66.04;101047.97;5219853;28;20417;-39
2021/12/03 00:34:35;;;;;;;13.15;5.65;;;;;;;3.32;66.31;101031.22;5220495;28;20430;-43
2021/12/03 00:37:07;;;;;;;13.00;6.43;;;;;;;3.41;66.41;101035.84;5217639;28;20430;-42
2021/12/03 00:39:40;;;;;;;12.07;7.13;;;;;;;3.42;66.25;101048.78;5219967;28;20423;-39
2021/12/03 00:42:15;;;;;;;12.57;6.80;;;;;;;3.42;66.53;101047.97;5219150;28;20508;-46
2021/12/03 00:44:52;;;;;;;10.90;6.47;;;;;;;3.42;66.21;101050.56;5224764;28;20483;-40
2021/12/03 00:47:25;;;;;;;11.82;7.00;;;;;;;3.42;66.40;101050.56;5218419;28;20480;-40
2021/12/03 00:49:58;;;;;;;13.65;7.93;;;;;;;3.41;66.41;101043.69;5216230;28;20408;-41
2021/12/03 00:52:31;;;;;;;12.95;7.75;;;;;;;3.42;66.26;101043.56;5221398;28;20839;-47
2021/12/03 00:55:04;;;;;;;16.25;8.43;;;;;;;3.06;66.55;100989.31;5220042;28;20810;-40
2021/12/03 00:57:37;;;;;;;17.15;7.88;;;;;;;3.40;66.36;101045.44;5217597;28;20791;-48
2021/12/03 01:00:14;;;;;;;16.00;8.00;;;;;;;3.43;66.30;101044.41;5224803;28;20778;-40
2021/12/03 01:02:47;;;;;;;11.85;7.38;;;;;;;3.36;66.46;101024.84;5219378;28;20429;-41
2021/12/03 01:05:21;;;;;;;18.00;9.05;;;;;;;3.41;66.50;101028.00;5220557;28;20528;-40
2021/12/03 01:07:54;;;;;;;18.52;8.20;;;;;;;3.42;66.25;101029.69;5221862;28;20428;-39
2021/12/03 01:10:29;;;;;;;18.38;8.48;;;;;;;3.43;66.53;101033.97;5213626;28;20423;-41
2021/12/03 01:13:02;;;;;;;24.08;8.45;;;;;;;3.37;66.58;101018.69;5219702;28;21269;-40
2021/12/03 01:15:37;;;;;;;16.63;9.13;;;;;;;3.43;66.59;101013.06;5218945;28;20426;-39
2021/12/03 01:18:12;;;;;;;17.95;9.57;;;;;;;3.45;66.19;101013.81;5220648;28;20434;-42
2021/12/03 01:20:46;;;;;;;16.90;8.38;;;;;;;3.46;66.27;101013.69;5220685;28;20974;-43
2021/12/03 01:23:18;;;;;;;24.27;11.20;;;;;;;3.45;66.33;101017.25;5217006;28;20427;-42
2021/12/03 01:25:51;;;;;;;21.53;10.83;;;;;;;3.44;66.33;101023.44;5218327;28;20417;-50
2021/12/03 01:28:26;;;;;;;18.92;9.50;;;;;;;3.44;66.37;101025.22;5215793;28;20430;-45
2021/12/03 01:31:00;;;;;;;23.25;10.25;;;;;;;3.46;66.46;101025.94;5215383;28;20981;-41
2021/12/03 01:33:33;;;;;;;23.00;9.73;;;;;;;3.47;66.47;101030.22;5219864;28;20432;-43
2021/12/03 01:36:07;;;;;;;19.85;9.75;;;;;;;3.52;66.50;101022.91;5221983;28;20423;-38
2021/12/03 01:38:39;;;;;;;26.52;9.63;;;;;;;3.56;66.60;101029.63;5216553;28;20430;-44
2021/12/03 01:41:12;;;;;;;14.88;8.45;;;;;;;3.55;66.65;101022.72;5219497;28;20451;-39
2021/12/03 01:43:46;;;;;;;19.75;9.20;;;;;;;3.55;66.42;101022.72;5217169;28;20433;-43
2021/12/03 01:46:20;;;;;;;11.10;7.63;;;;;;;3.64;66.56;101040.41;5218623;28;20445;-40
2021/12/03 01:48:52;;;;;;;14.18;7.63;;;;;;;3.67;66.52;101037.59;5217802;28;20421;-50
2021/12/03 01:51:28;;;;;;;14.25;7.55;;;;;;;3.68;66.45;101028.81;5220685;28;20510;-48
2021/12/03 01:54:00;;;;;;;14.80;6.65;;;;;;;3.69;66.31;101035.72;5216603;28;20836;-40
2021/12/03 01:56:33;;;;;;;11.50;7.13;;;;;;;3.73;66.55;101022.47;5221336;28;20924;-39
2021/12/03 01:59:06;;;;;;;18.13;6.88;;;;;;;3.73;66.60;101012.84;5220127;28;20432;-42
2021/12/03 02:01:39;;;;;;;15.52;7.15;;;;;;;3.75;66.47;101013.59;5220410;28;20514;-39
2021/12/03 02:04:12;;;;;;;17.35;8.50;;;;;;;3.73;66.46;101010.22;5219600;28;20794;-40
2021/12/03 02:06:45;;;;;;;14.30;7.53;;;;;;;3.77;66.27;101011.69;5217342;28;20503;-44
2021/12/03 02:09:18;;;;;;;15.73;7.35;;;;;;;3.78;66.62;101015.13;5218473;28;20434;-40
2021/12/03 02:11:50;;;;;;;18.37;7.13;;;;;;;3.80;66.47;101028.94;5217111;28;21053;-40
2021/12/03 02:14:22;;;;;;;12.27;6.43;;;;;;;3.82;66.48;101019.25;5220853;28;20421;-45
2021/12/03 02:16:55;;;;;;;16.20;7.25;;;;;;;3.84;66.34;101014.72;5219631;28;20765;-39
2021/12/03 02:19:29;;;;;;;15.97;6.93;;;;;;;3.86;66.34;101010.25;5215856;28;21249;-39
2021/12/03 02:22:03;;;;;;;18.10;7.55;;;;;;;3.90;66.61;101016.94;5220337;28;20933;-39
2021/12/03 02:24:36;;;;;;;15.70;7.80;;;;;;;3.86;66.51;101011.09;5218937;28;20436;-44
2021/12/03 02:27:08;;;;;;;24.80;7.70;;;;;;;3.85;66.65;101003.38;5219058;28;20412;-41
2021/12/03 02:29:41;;;;;;;15.55;7.82;;;;;;;3.87;66.45;101009.31;5218145;28;20534;-39
2021/12/03 02:32:13;;;;;;;20.83;8.52;;;;;;;3.86;66.51;100994.56;5216674;28;20931;-42
2021/12/03 02:34:46;;;;;;;14.07;8.55;;;;;;;3.87;66.57;101004.94;5209980;28;21724;-40
2021/12/03 02:37:19;;;;;;;14.93;8.07;;;;;;;3.91;66.72;100997.72;5219788;28;20469;-45
2021/12/03 02:39:52;;;;;;;21.88;8.32;;;;;;;3.88;66.67;100992.72;5217879;28;20414;-39
2021/12/03 02:42:24;;;;;;;19.02;7.80;;;;;;;3.95;66.67;101004.41;5216355;28;20424;-40
2021/12/03 02:44:57;;;;;;;17.13;7.47;;;;;;;3.98;66.38;101014.66;5216480;28;20429;-46
2021/12/03 02:47:29;;;;;;;15.95;7.25;;;;;;;4.01;66.42;101008.41;5219049;28;20429;-44
2021/12/03 02:50:02;;;;;;;21.10;7.90;;;;;;;4.05;66.35;101009.84;5218746;28;20508;-40
2021/12/03 02:52:36;;;;;;;19.02;8.55;;;;;;;4.08;66.43;101014.88;5218452;28;20441;-40
2021/12/03 02:55:10;;;;;;;32.50;8.32;;;;;;;4.09;66.49;101006.13;5217898;28;20500;-49
2021/12/03 02:57:42;;;;;;;15.05;8.18;;;;;;;4.11;66.29;101005.03;5214651;28;20424;-40
2021/12/03 03:00:18;;;;;;;15.32;8.27;;;;;;;4.18;66.30;101004.63;5209094;28;20899;-38
2021/12/03 03:02:52;;;;;;;16.35;8.35;;;;;;;4.23;66.18;101002.53;5219056;28;20442;-39
2021/12/03 03:05:26;;;;;;;17.27;8.83;;;;;;;4.25;66.30;101000.69;5220287;28;20895;-42
2021/12/03 03:08:00;;;;;;;18.20;8.55;;;;;;;3.93;66.39;100943.56;5215400;28;20403;-40
2021/12/03 03:10:39;;;;;;;14.63;9.13;;;;;;;4.27;66.48;100988.31;5220173;28;20931;-41
2021/12/03 03:13:12;;;;;;;15.48;8.00;;;;;;;4.27;66.47;100983.91;5219823;28;20477;-39
2021/12/03 03:15:45;;;;;;;14.88;7.32;;;;;;;4.27;66.40;100978.69;5215749;28;20947;-41
2021/12/03 03:18:21;;;;;;;18.63;8.70;;;;;;;4.27;66.58;100963.00;5218975;28;20740;-42
2021/12/03 03:20:55;;;;;;;15.90;7.50;;;;;;;4.26;66.54;100955.28;5216791;28;20424;-40
2021/12/03 03:23:30;;;;;;;21.40;7.70;;;;;;;4.26;66.29;100955.28;5214987;28;20397;-41
2021/12/03 03:26:02;;;;;;;18.38;7.10;;;;;;;4.26;66.42;100939.59;5216842;28;20431;-40
2021/12/03 03:28:36;;;;;;;20.48;7.55;;;;;;;4.27;66.47;100938.63;5214709;28;20901;-39
2021/12/03 03:31:08;;;;;;;19.70;7.47;;;;;;;4.26;66.53;100939.59;5214496;28;20439;-39
2021/12/03 03:33:41;;;;;;;20.03;6.50;;;;;;;4.29;66.78;100942.00;5219804;28;20468;-40
2021/12/03 03:36:13;;;;;;;16.77;6.60;;;;;;;4.33;66.67;100946.06;5215191;28;20429;-43
2021/12/03 03:38:47;;;;;;;18.95;7.20;;;;;;;4.37;66.73;100947.53;5218734;28;20429;-42
2021/12/03 03:41:19;;;;;;;15.57;5.70;;;;;;;4.43;66.64;100941.88;5215891;28;20426;-41
2021/12/03 03:43:52;;;;;;;19.77;6.82;;;;;;;4.46;66.72;100928.59;5214748;28;20531;-39
2021/12/03 03:46:25;;;;;;;16.60;5.97;;;;;;;4.52;66.85;100938.63;5212799;28;20893;-40
2021/12/03 03:48:58;;;;;;;16.10;6.90;;;;;;;4.56;66.71;100932.22;5212750;28;20421;-41
2021/12/03 03:51:30;;;;;;;15.68;6.47;;;;;;;4.59;66.51;100932.00;5217854;28;20419;-49
2021/12/03 03:54:05;;;;;;;17.60;7.80;;;;;;;4.61;66.37;100932.72;5219816;28;20427;-41
2021/12/03 03:56:37;;;;;;;16.95;7.22;;;;;;;4.60;66.65;100928.44;5217746;28;20423;-40
2021/12/03 03:59:09;;;;;;;23.80;8.00;;;;;;;4.58;66.55;100924.25;5216240;28;20422;-47
2021/12/03 04:01:42;;;;;;;18.63;7.28;;;;;;;4.56;66.47;100921.75;5215949;28;20431;-40
2021/12/03 04:04:16;;;;;;;20.00;8.02;;;;;;;4.59;66.62;100931.16;5218035;28;20418;-41
2021/12/03 04:06:51;;;;;;;20.80;8.40;;;;;;;4.59;66.51;100936.41;5218246;28;20416;-40
2021/12/03 04:09:25;;;;;;;15.57;6.90;;;;;;;4.62;66.65;100937.00;5217747;28;20499;-43
2021/12/03 04:11:58;;;;;;;17.77;7.43;;;;;;;4.68;66.47;100934.91;5213104;28;20419;-40
2021/12/03 04:14:30;;;;;;;19.77;7.70;;;;;;;4.70;66.59;100933.84;5218284;28;20422;-40
2021/12/03 04:17:02;;;;;;;12.95;6.53;;;;;;;4.75;66.59;100923.88;5215136;28;20430;-41
2021/12/03 04:19:35;;;;;;;21.00;6.97;;;;;;;4.79;66.48;100917.47;5217511;28;20432;-40
2021/12/03 04:22:08;;;;;;;13.43;6.57;;;;;;;4.85;66.57;100910.97;5219345;28;20895;-40
2021/12/03 04:24:42;;;;;;;23.13;6.72;;;;;;;4.89;66.50;100922.03;5218344;28;20778;-40
2021/12/03 04:27:14;;;;;;;14.32;5.50;;;;;;;4.90;66.48;100924.56;5220481;28;20511;-43
2021/12/03 04:29:48;;;;;;;13.10;5.60;;;;;;;4.80;66.68;100910.47;5215245;28;20419;-40
2021/12/03 04:32:22;;;;;;;14.05;5.57;;;;;;;4.85;66.83;100908.34;5214585;28;20411;-46
2021/12/03 04:34:55;;;;;;;13.15;5.43;;;;;;;4.84;66.92;100894.44;5212874;28;20445;-40
2021/12/03 04:37:27;;;;;;;15.57;5.60;;;;;;;4.85;66.88;100900.50;5215974;28;20893;-42
2021/12/03 04:40:01;;;;;;;13.55;5.03;;;;;;;4.85;66.67;100900.50;5216198;28;20416;-40
2021/12/03 04:42:34;;;;;;;13.48;4.90;;;;;;;4.81;66.96;100883.38;5215827;28;20414;-41
2021/12/03 04:45:09;;;;;;;16.00;5.43;;;;;;;4.94;66.86;100886.75;5216462;28;20511;-42
2021/12/03 04:47:41;;;;;;;10.75;4.63;;;;;;;4.71;66.62;100850.97;5216725;28;20424;-41
2021/12/03 04:50:16;;;;;;;14.73;4.47;;;;;;;5.00;66.94;100883.69;5215433;28;20503;-42
2021/12/03 04:52:49;;;;;;;14.70;5.25;;;;;;;4.98;66.68;100880.34;5216854;28;20891;-45
2021/12/03 04:55:24;;;;;;;12.85;4.45;;;;;;;5.08;66.60;100891.81;5215656;28;20431;-44
2021/12/03 04:57:57;;;;;;;13.40;4.25;;;;;;;5.12;66.64;100888.97;5216055;28;20413;-42
2021/12/03 05:00:35;;;;;;;13.20;4.88;;;;;;;5.15;66.59;100891.38;5212815;28;20915;-41
2021/12/03 05:03:08;;;;;;;10.45;4.43;;;;;;;5.18;66.67;100885.91;5217046;28;20427;-42
2021/12/03 05:05:47;;;;;;;15.05;4.57;;;;;;;5.19;66.83;100896.25;5216207;28;20504;-41
2021/12/03 05:08:20;;;;;;;13.18;4.45;;;;;;;5.23;66.77;100882.00;5212388;28;20906;-39
2021/12/03 05:10:54;;;;;;;12.25;4.53;;;;;;;5.26;66.87;100873.06;5219038;28;20795;-41
2021/12/03 05:13:33;;;;;;;14.93;5.07;;;;;;;5.26;66.64;100867.81;5217334;28;20493;-40
2021/12/03 05:16:06;;;;;;;12.45;5.25;;;;;;;5.25;66.80;100867.00;5220793;28;20431;-42
2021/12/03 05:18:41;;;;;;;13.45;4.43;;;;;;;5.27;66.67;100861.66;5222827;28;20427;-41
2021/12/03 05:21:14;;;;;;;12.15;5.35;;;;;;;5.25;66.58;100856.50;5218964;28;20431;-50
2021/12/03 05:23:46;;;;;;;13.85;4.82;;;;;;;5.26;66.87;100857.34;5218447;28;20917;-40
2021/12/03 05:26:20;;;;;;;12.80;5.13;;;;;;;5.26;66.72;100873.88;5223056;28;20489;-42
2021/12/03 05:28:52;;;;;;;20.45;4.93;;;;;;;5.27;66.54;100865.09;5228544;28;20399;-40
2021/12/03 05:31:24;;;;;;;17.27;4.70;;;;;;;5.28;66.55;100866.75;5223448;28;20425;-41
2021/12/03 05:33:57;;;;;;;18.38;4.90;;;;;;;5.29;66.72;100862.34;5218487;28;20486;-42
2021/12/03 05:36:30;;;;;;;15.97;4.53;;;;;;;5.20;66.73;100847.34;5220297;28;20423;-44
2021/12/03 05:39:02;;;;;;;17.25;4.95;;;;;;;5.25;66.99;100860.94;5220543;28;20419;-40
2021/12/03 05:41:36;;;;;;;19.33;5.43;;;;;;;5.24;66.81;100854.03;5219243;28;20427;-40
2021/12/03 05:44:09;;;;;;;13.30;4.72;;;;;;;5.22;66.99;100850.69;5215446;28;20540;-41
2021/12/03 05:46:41;;;;;;;11.30;4.82;;;;;;;5.24;66.95;100846.19;5221174;28;20425;-47
2021/12/03 05:49:13;;;;;;;16.52;5.32;;;;;;;5.22;66.82;100851.50;5222790;28;20418;-39
2021/12/03 05:51:46;;;;;;;18.47;4.93;;;;;;;5.26;67.05;100852.09;5217709;28;20996;-45
2021/12/03 05:54:19;;;;;;;19.73;5.35;;;;;;;5.30;66.74;100849.16;5218987;28;20763;-41
2021/12/03 05:56:52;;;;;;;16.92;5.03;;;;;;;5.34;66.70;100859.41;5217523;28;20492;-44
2021/12/03 05:59:25;;;;;;;20.05;5.80;;;;;;;5.34;66.82;100841.91;5216136;28;20428;-41
2021/12/03 06:01:57;;;;;;;19.67;5.15;;;;;;;5.41;66.77;100844.88;5213829;28;20767;-44
2021/12/03 06:04:30;;;;;;;19.83;6.00;;;;;;;5.44;66.65;100840.25;5214858;28;20446;-46
2021/12/03 06:07:02;;;;;;;16.85;5.47;;;;;;;5.48;66.75;100841.69;5222139;28;20415;-40
2021/12/03 06:09:34;;;;;;;19.55;5.65;;;;;;;5.52;66.64;100837.88;5216642;28;20417;-41
2021/12/03 06:12:10;;;;;;;22.52;5.35;;;;;;;5.55;66.84;100840.28;5216841;28;20500;-41
2021/12/03 06:14:43;;;;;;;16.00;5.68;;;;;;;5.57;66.77;100834.91;5220656;28;20909;-40
2021/12/03 06:17:16;;;;;;;18.48;5.85;;;;;;;5.59;66.74;100832.19;5216557;28;20760;-42
2021/12/03 06:19:48;;;;;;;10.20;4.55;;;;;;;5.60;66.86;100839.06;5218677;28;20407;-40
2021/12/03 06:22:20;;;;;;;16.67;5.15;;;;;;;5.64;66.78;100832.66;5217530;28;20405;-47
2021/12/03 06:24:52;;;;;;;18.85;5.45;;;;;;;5.66;66.66;100838.59;5215494;28;20405;-40
2021/12/03 06:27:27;;;;;;;19.83;5.40;;;;;;;5.67;66.87;100824.56;5219773;28;20434;-42
2021/12/03 06:30:03;;;;;;;11.00;3.65;;;;;;;5.68;66.67;100827.06;5211157;28;20858;-39
2021/12/03 06:32:35;;;;;;;18.92;4.78;;;;;;;5.76;66.75;100835.19;5216215;28;20505;-40
2021/12/03 06:35:11;;;;;;;9.93;4.27;;;;;;;5.78;66.80;100838.50;5218451;28;20420;-40
2021/12/03 06:37:44;;;;;;;17.60;4.93;;;;;;;5.81;66.98;100834.81;5215142;28;20924;-46
2021/12/03 06:40:22;;;;;;;20.50;5.63;;;;;;;5.84;66.71;100826.72;5215342;28;20418;-41
2021/12/03 06:42:56;;;;;;;24.77;6.28;;;;;;;5.88;66.78;100833.38;5214391;28;20772;-43
2021/12/03 06:45:28;;;;;;;23.05;5.80;;;;;;;5.94;66.97;100837.34;5216630;28;20491;-42
2021/12/03 06:48:00;;;;;;;24.38;4.28;;;;;;;5.95;66.76;100829.38;5220218;28;20428;-42
2021/12/03 06:50:33;;;;;;;12.50;3.80;;;;;;;5.95;66.88;100824.13;5216477;28;20807;-42
2021/12/03 06:53:07;;;;;;;14.32;4.78;;;;;;;5.93;66.77;100814.72;5210646;28;20432;-41
2021/12/03 06:55:46;;;;;;;16.23;4.65;;;;;;;5.94;66.83;100817.19;5217307;28;20429;-41
2021/12/03 06:58:22;;;;;;;16.27;4.40;;;;;;;5.89;66.76;100808.84;5220147;28;20413;-41
2021/12/03 07:00:57;;;;;;;18.80;4.75;;;;;;;5.96;66.76;100815.28;5215174;28;20761;-41
2021/12/03 07:03:29;;;;;;;17.08;5.10;;;;;;;5.96;66.77;100810.06;5212038;28;20413;-40
2021/12/03 07:06:01;;;;;;;14.45;5.00;;;;;;;5.96;66.76;100825.78;5217452;28;20414;-42
2021/12/03 07:08:34;;;;;;;13.25;5.03;;;;;;;5.95;66.70;100818.06;5217632;28;20445;-40
2021/12/03 07:11:06;;;;;;;17.15;5.72;;;;;;;5.95;66.72;100818.88;5214339;28;20473;-43
2021/12/03 07:13:40;;;;;;;14.13;5.00;;;;;;;5.91;66.87;100821.81;5219688;28;20509;-41
2021/12/03 07:16:12;;;;;;;18.95;4.97;;;;;;;5.89;66.77;100811.47;5219139;28;20445;-42
2021/12/03 07:18:45;;;;;;;20.52;5.22;;;;;;;5.92;66.58;100818.25;5221571;28;20973;-47
2021/12/03 07:21:17;;;;;;;22.17;5.82;;;;;;;5.90;66.75;100815.75;5214501;28;20950;-43
2021/12/03 07:23:51;;;;;;;21.15;5.65;;;;;;;5.83;66.64;100801.47;5217346;28;20425;-42
2021/12/03 07:26:26;;;;;;;17.90;6.57;;;;;;;5.83;66.33;100790.97;5218365;28;20414;-43
2021/12/03 07:29:00;;;;;;;21.25;6.47;;;;;;;5.91;66.79;100799.06;5212261;28;20393;-43
2021/12/03 07:31:33;;;;;;;14.10;5.50;;;;;;;5.91;67.00;100799.06;5217853;28;20902;-42
2021/12/03 07:34:05;;;;;;;18.23;5.28;;;;;;;5.93;66.53;100793.75;5212588;28;20416;-43
2021/12/03 07:36:37;;;;;;;20.02;5.80;;;;;;;5.93;66.69;100784.06;5216836;28;20438;-41
2021/12/03 07:39:10;;;;;;;18.73;5.50;;;;;;;5.95;66.49;100790.03;5214406;28;20883;-42
2021/12/03 07:41:42;;;;;;;17.88;5.60;;;;;;;5.96;66.66;100789.09;5216175;28;20419;-43
2021/12/03 07:44:16;;;;;;;18.67;5.85;;;;;;;5.96;66.51;100783.00;5217253;28;20439;-43
2021/12/03 07:46:48;;;;;;;24.83;5.87;;;;;;;5.93;66.48;100770.97;5217853;28;20504;-41
2021/12/03 07:49:22;;;;;;;23.48;6.60;;;;;;;5.93;66.59;100778.84;5222254;28;20469;-42
2021/12/03 07:51:55;;;;;;;18.25;5.28;;;;;;;5.83;66.62;100775.25;5220752;28;20424;-41
2021/12/03 07:54:28;;;;;;;25.03;6.57;;;;;;;5.96;66.49;100773.34;5211758;28;20430;-42
2021/12/03 07:57:00;;;;;;;21.92;7.53;;;;;;;5.97;66.39;100759.28;5215551;28;20767;-43
2021/12/03 07:59:34;;;;;;;21.70;7.13;;;;;;;6.00;66.27;100760.81;5217809;28;20482;-42
2021/12/03 08:02:07;;;;;;;21.00;6.90;;;;;;;5.90;66.43;100752.84;5214723;28;20414;-43
2021/12/03 08:04:39;;;;;;;27.88;8.23;;;;;;;5.99;66.50;100773.09;5217278;28;20497;-40
2021/12/03 08:07:12;;;;;;;27.17;7.60;;;;;;;5.97;66.47;100764.53;5226396;28;20520;-41
2021/12/03 08:09:44;;;;;;;23.65;7.70;;;;;;;5.93;66.38;100757.03;5223621;28;20404;-42
2021/12/03 08:12:17;;;;;;;26.38;8.57;;;;;;;5.91;66.64;100758.91;5222858;28;20409;-43
2021/12/03 08:14:51;;;;;;;30.48;7.38;;;;;;;5.92;66.29;100761.41;5220140;28;20426;-42
2021/12/03 08:17:23;;;;;;;16.67;6.80;;;;;;;5.92;66.37;100756.19;5229019;28;20448;-41
2021/12/03 08:19:56;;;;;;;23.50;6.65;;;;;;;5.93;66.51;100750.00;5219360;28;20449;-42
2021/12/03 08:22:29;;;;;;;21.70;7.65;;;;;;;5.92;66.55;100745.69;5226663;28;20415;-43
2021/12/03 08:25:01;;;;;;;22.02;6.50;;;;;;;5.83;66.49;100730.69;5226755;28;20483;-43
2021/12/03 08:27:34;;;;;;;18.55;6.80;;;;;;;5.95;66.45;100735.00;5228630;28;20533;-43
2021/12/03 08:30:11;;;;;;;18.38;5.97;;;;;;;6.00;66.34;100743.31;5228173;28;20431;-43
2021/12/03 08:32:43;;;;;;;22.90;6.72;;;;;;;6.02;66.47;100737.13;5224936;28;20419;-46
2021/12/03 08:35:16;;;;;;;18.48;6.07;;;;;;;6.03;66.23;100738.78;5230115;28;20422;-42
2021/12/03 08:37:50;;;;;;;25.25;7.35;;;;;;;5.99;66.36;100736.41;5229954;28;20419;-41
2021/12/03 08:40:23;;;;;;;22.90;6.75;;;;;;;5.99;66.34;100732.97;5219672;28;20399;-46
2021/12/03 08:42:56;;;;;;;22.45;7.05;;;;;;;5.95;66.42;100737.63;5217415;28;20786;-43
2021/12/03 08:45:30;;;;;;;22.98;7.65;;;;;;;5.93;66.33;100747.38;5216642;28;20497;-43
2021/12/03 08:48:04;;;;;;;23.83;7.83;;;;;;;5.91;66.17;100743.19;5215348;28;20861;-41
2021/12/03 08:50:47;;;;;;;26.27;8.02;;;;;;;5.86;66.03;100740.94;5222102;28;20422;-42
2021/12/03 08:56:08;;;;;;;20.20;6.38;;;;;;;5.77;66.06;100731.19;5221010;28;20799;-43
2021/12/03 08:58:41;;;;;;;29.02;6.78;;;;;;;5.77;66.14;100725.94;5222262;28;20422;-43
2021/12/03 09:01:14;;;;;;;19.48;6.43;;;;;;;5.22;66.15;100639.44;5215721;28;20427;-43
2021/12/03 09:03:47;;;;;;;15.45;6.40;;;;;;;5.71;66.04;100722.00;5224398;28;20479;-42
2021/12/03 09:06:20;;;;;;;19.52;6.85;;;;;;;5.71;65.99;100723.81;5226127;28;20884;-43
2021/12/03 09:08:52;;;;;;;21.00;7.78;;;;;;;5.72;65.77;100721.03;5216239;28;20409;-43
2021/12/03 09:11:25;;;;;;;17.88;6.75;;;;;;;5.71;65.85;100715.94;5222122;28;20426;-44
2021/12/03 09:14:01;;;;;;;18.45;6.65;;;;;;;5.72;65.90;100717.59;5217189;28;20510;-49
2021/12/03 09:16:35;;;;;;;19.77;6.70;;;;;;;5.74;65.65;100715.69;5229481;28;20411;-41
2021/12/03 09:19:15;;;;;;;29.98;7.05;;;;;;;5.73;65.66;100707.00;5220973;28;20423;-44
2021/12/03 09:21:48;;;;;;;19.58;6.65;;;;;;;5.75;65.44;100710.31;5227973;28;20407;-42
2021/12/03 09:24:27;;;;;;;17.98;6.50;;;;;;;5.76;65.43;100698.91;5224064;28;20443;-44
2021/12/03 09:27:00;;;;;;;15.18;6.80;;;;;;;5.62;65.60;100683.44;5224227;28;20425;-44
2021/12/03 09:29:34;;;;;;;23.85;6.13;;;;;;;5.73;65.63;100703.56;5225601;28;20415;-42
2021/12/03 09:32:08;;;;;;;14.52;5.63;;;;;;;5.74;65.52;100695.56;5220243;28;20406;-43
2021/12/03 09:34:41;;;;;;;17.77;6.00;;;;;;;5.77;65.52;100695.31;5229750;28;20427;-41
2021/12/03 09:37:13;;;;;;;14.23;5.18;;;;;;;5.71;65.39;100681.88;5223756;28;20431;-49
2021/12/03 09:39:46;;;;;;;13.70;4.60;;;;;;;5.80;65.19;100682.94;5223555;28;20429;-43
2021/12/03 09:42:20;;;;;;;11.10;5.40;;;;;;;5.79;65.37;100679.47;5223058;28;20913;-41
2021/12/03 09:44:52;;;;;;;17.42;5.35;;;;;;;5.81;65.35;100668.88;5224534;28;20421;-42
2021/12/03 09:47:26;;;;;;;18.80;4.95;;;;;;;5.78;65.17;100668.16;5224028;28;20408;-42
2021/12/03 09:50:02;;;;;;;17.13;5.15;;;;;;;5.80;65.54;100657.56;5225007;28;20423;-43
2021/12/03 09:52:43;;;;;;;13.85;4.85;;;;;;;5.71;65.43;100639.97;5224488;28;20416;-43
2021/12/03 09:55:16;;;;;;;12.18;4.28;;;;;;;5.85;65.34;100659.78;5224556;28;20507;-41
2021/12/03 09:58:00;;;;;;;11.73;4.03;;;;;;;5.86;65.27;100656.25;5224557;28;20404;-43
2021/12/03 10:00:37;;;;;;;13.20;4.20;;;;;;;5.90;65.31;100642.75;5218181;28;20423;-43
2021/12/03 10:03:30;;;;;;;12.95;4.80;;;;;;;5.91;65.33;100640.97;5225557;28;20407;-42
2021/12/03 10:15:00;;;;;;;15.40;4.65;;;;;;;6.17;64.94;100638.88;5219918;28;20448;-42
2021/12/03 10:17:47;;;;;;;9.93;4.03;;;;;;;6.21;64.95;100645.53;5221490;28;20415;-42
2021/12/03 10:20:29;;;;;;;13.73;3.60;;;;;;;6.08;64.90;100610.78;5226791;28;20416;-49
2021/12/03 10:44:10;;;;;;;16.23;5.32;;;;;;;6.30;64.71;100591.50;5199071;28;20438;-43
2021/12/03 10:52:25;;;;;;;16.03;5.60;;;;;;;6.11;64.64;100573.84;5220533;28;21342;-42
2021/12/03 10:58:11;;;;;;;19.80;7.07;;;;;;;5.98;64.47;100577.47;5223836;28;20404;-41
2021/12/03 11:07:05;;;;;;;20.70;9.70;;;;;;;5.74;64.64;100542.75;5226411;28;20399;-47
2021/12/03 13:01:57;;;;;;;16.08;6.75;;;;;;;6.39;65.42;100347.59;5307971;27;20401;-41
2021/12/03 13:10:57;;;;;;;9.32;5.05;;;;;;;6.46;65.61;100340.84;5298726;27;20896;-40
2021/12/03 13:13:54;;;;;;;9.90;5.85;;;;;;;6.53;65.24;100329.81;5289152;27;20402;-41
2021/12/03 14:46:30;;;;;;;11.07;7.90;;;;;;;6.35;65.14;100300.78;5241411;28;20412;-43
2021/12/03 14:49:30;;;;;;;11.30;8.65;;;;;;;6.31;65.05;100288.91;5233762;28;20470;-43
2021/12/03 14:52:18;;;;;;;10.40;8.80;;;;;;;6.32;65.30;100291.41;5232495;28;20400;-44
2021/12/03 14:54:57;;;;;;;11.18;9.00;;;;;;;6.31;65.15;100289.75;5243307;28;20447;-43
2021/12/03 14:57:43;;;;;;;10.07;8.48;;;;;;;6.28;65.27;100290.00;5243718;28;20410;-45
2021/12/03 15:00:25;;;;;;;9.70;8.45;;;;;;;6.24;65.24;100280.75;5271244;27;20432;-42
2021/12/03 15:03:27;;;;;;;13.18;8.98;;;;;;;6.21;65.19;100281.03;5286753;27;20414;-44
2021/12/03 15:06:18;;;;;;;11.52;10.38;;;;;;;6.17;65.44;100272.63;5271923;27;20425;-42
2021/12/03 15:08:54;;;;;;;12.68;9.15;;;;;;;6.19;65.42;100273.31;5274824;27;20826;-42
2021/12/03 15:20:28;;;;;;;11.48;10.27;;;;;;;6.24;65.44;100262.41;5273071;27;20426;-42
2021/12/03 15:23:09;;;;;;;10.23;9.23;;;;;;;6.25;65.47;100269.31;5276691;27;20904;-42
2021/12/03 15:25:57;;;;;;;10.95;9.93;;;;;;;6.27;65.68;100259.53;5256896;27;20473;-43
2021/12/03 15:31:45;;;;;;;15.30;11.07;;;;;;;6.31;65.50;100258.28;5280406;27;20403;-42
2021/12/03 15:37:43;;;;;;;12.40;11.10;;;;;;;6.35;65.60;100256.19;5242383;27;20560;-45
2021/12/03 15:40:36;;;;;;;15.95;12.73;;;;;;;6.33;65.85;100253.72;5266991;27;20452;-46
2021/12/03 16:08:57;;;;;;;17.42;15.63;;;;;;;6.29;66.07;100241.00;5269014;27;20399;-41
2021/12/03 16:14:40;;;;;;;20.02;18.13;;;;;;;6.27;66.36;100230.66;5277044;27;20417;-42
2021/12/03 16:17:26;;;;;;;21.75;18.52;;;;;;;6.33;66.37;100239.78;5278897;27;20416;-42
2021/12/03 16:26:32;;;;;;;24.05;21.08;;;;;;;6.27;66.58;100225.44;5234833;27;20410;-44
2021/12/03 16:43:44;;;;;;;24.73;22.00;;;;;;;6.54;66.37;100237.03;5275959;27;20408;-41
2021/12/03 16:46:57;;;;;;;27.25;21.92;;;;;;;6.52;66.65;100238.97;5270637;28;20409;-42
2021/12/03 16:50:06;;;;;;;24.98;22.05;;;;;;;6.46;66.55;100230.66;5283616;27;20995;-42
2021/12/03 16:52:41;;;;;;;26.27;22.88;;;;;;;6.46;66.84;100241.16;5267851;27;20411;-41
2021/12/03 16:55:14;;;;;;;28.35;23.90;;;;;;;6.52;66.70;100254.72;5265110;27;20783;-42
2021/12/03 16:57:49;;;;;;;24.30;21.60;;;;;;;6.56;66.57;100242.97;5286982;28;20456;-44
2021/12/03 17:00:28;;;;;;;25.90;23.15;;;;;;;6.49;66.80;100226.13;5276918;27;20410;-46
2021/12/03 17:03:05;;;;;;;24.92;22.17;;;;;;;6.60;66.73;100228.63;5274968;28;20997;-45
2021/12/03 17:08:39;;;;;;;28.92;24.42;;;;;;;6.63;66.72;100230.97;5283628;28;20842;-43
2021/12/03 17:11:34;;;;;;;29.58;24.13;;;;;;;6.65;66.81;100223.75;5280874;28;20417;-42
2021/12/03 17:14:17;;;;;;;30.17;24.10;;;;;;;6.60;66.78;100224.19;5276482;27;20458;-42
2021/12/03 17:31:33;;;;;;;28.80;24.27;;;;;;;6.67;67.21;100204.28;5287726;27;20771;-43
2021/12/03 17:51:38;;;;;;;27.00;22.70;;;;;;;6.79;67.37;100193.66;5231368;28;20414;-43
2021/12/03 17:54:23;;;;;;;25.85;23.10;;;;;;;6.81;67.37;100196.94;5236303;28;20424;-46
2021/12/03 17:57:03;;;;;;;30.73;26.08;;;;;;;6.79;67.33;100197.09;5237344;28;20412;-44